sensor_id;sensor_type;location;lat;lon;timestamp;pressure;altitude;pressure_sealevel;temperature;humidity
75996;BME280;64681;49.738;9.004;2023-06-10T00:01:43;99196.66;;;14.90;76.92
75996;BME280;64681;49.738;9.004;2023-06-10T00:04:16;99196.91;;;14.81;76.87
75996;BME280;64681;49.738;9.004;2023-06-10T00:06:44;99205.00;;;14.84;77.00
75996;BME280;64681;49.738;9.004;2023-06-10T00:09:10;99197.41;;;14.90;76.26
75996;BME280;64681;49.738;9.004;2023-06-10T00:11:36;99194.94;;;14.78;77.01
75996;BME280;64681;49.738;9.004;2023-06-10T00:14:03;99209.63;;;14.84;76.72
75996;BME280;64681;49.738;9.004;2023-06-10T00:16:28;99204.16;;;14.77;77.08
75996;BME280;64681;49.738;9.004;2023-06-10T00:18:54;99211.41;;;14.76;76.76
75996;BME280;64681;49.738;9.004;2023-06-10T00:21:30;99200.28;;;14.74;76.57
75996;BME280;64681;49.738;9.004;2023-06-10T00:24:03;99200.56;;;14.69;76.69
75996;BME280;64681;49.738;9.004;2023-06-10T00:26:31;99198.41;;;14.55;77.42
75996;BME280;64681;49.738;9.004;2023-06-10T00:28:57;99201.44;;;14.53;77.44
75996;BME280;64681;49.738;9.004;2023-06-10T00:31:22;99208.28;;;14.47;77.59
75996;BME280;64681;49.738;9.004;2023-06-10T00:33:48;99205.53;;;14.44;77.67
75996;BME280;64681;49.738;9.004;2023-06-10T00:36:14;99202.84;;;14.20;78.62
75996;BME280;64681;49.738;9.004;2023-06-10T00:38:39;99195.44;;;14.14;78.95
75996;BME280;64681;49.738;9.004;2023-06-10T00:41:06;99209.91;;;14.29;78.07
75996;BME280;64681;49.738;9.004;2023-06-10T00:43:33;99209.75;;;14.21;79.06
75996;BME280;64681;49.738;9.004;2023-06-10T00:45:59;99207.84;;;14.22;78.22
75996;BME280;64681;49.738;9.004;2023-06-10T00:48:25;99205.13;;;14.18;78.89
75996;BME280;64681;49.738;9.004;2023-06-10T00:50:51;99202.38;;;14.15;78.33
75996;BME280;64681;49.738;9.004;2023-06-10T00:53:16;99195.44;;;14.14;78.47
75996;BME280;64681;49.738;9.004;2023-06-10T00:55:42;99204.69;;;14.16;78.03
75996;BME280;64681;49.738;9.004;2023-06-10T00:58:08;99197.63;;;14.08;78.32
75996;BME280;64681;49.738;9.004;2023-06-10T01:00:34;99210.88;;;13.97;78.93
75996;BME280;64681;49.738;9.004;2023-06-10T01:03:00;99211.72;;;14.01;79.28
75996;BME280;64681;49.738;9.004;2023-06-10T01:05:25;99206.88;;;13.87;79.55
75996;BME280;64681;49.738;9.004;2023-06-10T01:08:03;99214.22;;;13.90;79.83
75996;BME280;64681;49.738;9.004;2023-06-10T01:10:44;99213.19;;;13.99;78.92
75996;BME280;64681;49.738;9.004;2023-06-10T01:13:13;99216.97;;;13.94;78.78
75996;BME280;64681;49.738;9.004;2023-06-10T01:15:39;99198.75;;;13.84;79.39
75996;BME280;64681;49.738;9.004;2023-06-10T01:18:10;99205.81;;;13.72;79.87
75996;BME280;64681;49.738;9.004;2023-06-10T01:20:37;99205.06;;;13.72;79.93
75996;BME280;64681;49.738;9.004;2023-06-10T01:23:06;99213.94;;;13.76;80.29
75996;BME280;64681;49.738;9.004;2023-06-10T01:25:33;99205.19;;;13.79;79.35
75996;BME280;64681;49.738;9.004;2023-06-10T01:30:43;99213.88;;;13.72;79.51
75996;BME280;64681;49.738;9.004;2023-06-10T01:33:22;99219.09;;;13.65;80.30
75996;BME280;64681;49.738;9.004;2023-06-10T01:35:50;99206.66;;;13.57;80.30
75996;BME280;64681;49.738;9.004;2023-06-10T01:38:19;99218.88;;;13.54;80.76
75996;BME280;64681;49.738;9.004;2023-06-10T01:40:46;99221.00;;;13.65;80.16
75996;BME280;64681;49.738;9.004;2023-06-10T01:43:12;99209.50;;;13.64;79.85
75996;BME280;64681;49.738;9.004;2023-06-10T01:45:37;99220.50;;;13.59;79.80
75996;BME280;64681;49.738;9.004;2023-06-10T01:48:03;99222.84;;;13.60;79.93
75996;BME280;64681;49.738;9.004;2023-06-10T01:50:28;99216.63;;;13.56;79.83
75996;BME280;64681;49.738;9.004;2023-06-10T01:52:54;99216.78;;;13.64;79.41
75996;BME280;64681;49.738;9.004;2023-06-10T01:55:19;99213.41;;;13.67;78.76
75996;BME280;64681;49.738;9.004;2023-06-10T01:57:45;99218.75;;;13.47;80.14
75996;BME280;64681;49.738;9.004;2023-06-10T02:00:11;99229.69;;;13.58;79.18
75996;BME280;64681;49.738;9.004;2023-06-10T02:02:36;99217.38;;;13.37;80.11
75996;BME280;64681;49.738;9.004;2023-06-10T02:05:02;99217.72;;;13.36;79.97
75996;BME280;64681;49.738;9.004;2023-06-10T02:07:28;99225.78;;;13.36;80.17
75996;BME280;64681;49.738;9.004;2023-06-10T02:09:53;99216.88;;;13.32;80.26
75996;BME280;64681;49.738;9.004;2023-06-10T02:12:19;99212.25;;;13.12;80.18
75996;BME280;64681;49.738;9.004;2023-06-10T02:14:44;99230.44;;;13.39;79.74
75996;BME280;64681;49.738;9.004;2023-06-10T02:17:10;99214.41;;;13.23;79.68
75996;BME280;64681;49.738;9.004;2023-06-10T02:19:38;99225.81;;;13.20;80.16
75996;BME280;64681;49.738;9.004;2023-06-10T02:22:08;99230.84;;;13.21;79.93
75996;BME280;64681;49.738;9.004;2023-06-10T02:24:36;99215.28;;;13.11;80.26
75996;BME280;64681;49.738;9.004;2023-06-10T02:27:01;99215.97;;;13.08;79.99
75996;BME280;64681;49.738;9.004;2023-06-10T02:29:27;99224.63;;;13.17;80.21
75996;BME280;64681;49.738;9.004;2023-06-10T02:31:52;99227.66;;;12.99;81.02
75996;BME280;64681;49.738;9.004;2023-06-10T02:34:18;99228.97;;;13.06;80.48
75996;BME280;64681;49.738;9.004;2023-06-10T02:36:44;99229.94;;;12.97;81.13
75996;BME280;64681;49.738;9.004;2023-06-10T02:39:09;99226.91;;;12.99;80.92
75996;BME280;64681;49.738;9.004;2023-06-10T02:41:35;99229.31;;;13.04;80.51
75996;BME280;64681;49.738;9.004;2023-06-10T02:44:00;99225.28;;;12.94;80.97
75996;BME280;64681;49.738;9.004;2023-06-10T02:46:26;99229.34;;;12.88;81.06
75996;BME280;64681;49.738;9.004;2023-06-10T02:48:54;99235.91;;;12.91;81.27
75996;BME280;64681;49.738;9.004;2023-06-10T02:51:19;99231.06;;;12.96;80.64
75996;BME280;64681;49.738;9.004;2023-06-10T02:53:46;99227.59;;;12.96;80.62
75996;BME280;64681;49.738;9.004;2023-06-10T02:56:11;99214.31;;;12.83;80.37
75996;BME280;64681;49.738;9.004;2023-06-10T02:58:38;99228.66;;;12.75;81.05
75996;BME280;64681;49.738;9.004;2023-06-10T03:01:03;99222.78;;;12.86;80.90
75996;BME280;64681;49.738;9.004;2023-06-10T03:03:29;99229.16;;;12.97;80.64
75996;BME280;64681;49.738;9.004;2023-06-10T03:05:55;99232.72;;;12.85;81.12
75996;BME280;64681;49.738;9.004;2023-06-10T03:08:22;99220.81;;;12.66;81.56
75996;BME280;64681;49.738;9.004;2023-06-10T03:10:47;99207.44;;;12.66;81.27
75996;BME280;64681;49.738;9.004;2023-06-10T03:13:12;99223.13;;;12.84;80.78
75996;BME280;64681;49.738;9.004;2023-06-10T03:15:39;99221.22;;;12.85;80.79
75996;BME280;64681;49.738;9.004;2023-06-10T03:18:06;99220.88;;;12.86;80.27
75996;BME280;64681;49.738;9.004;2023-06-10T03:20:32;99209.22;;;12.62;80.93
75996;BME280;64681;49.738;9.004;2023-06-10T03:23:04;99236.03;;;12.78;80.88
75996;BME280;64681;49.738;9.004;2023-06-10T03:25:32;99238.06;;;12.85;80.66
75996;BME280;64681;49.738;9.004;2023-06-10T03:27:57;99232.03;;;12.72;81.03
75996;BME280;64681;49.738;9.004;2023-06-10T03:30:23;99233.66;;;12.77;80.95
75996;BME280;64681;49.738;9.004;2023-06-10T03:32:48;99233.94;;;12.72;81.19
75996;BME280;64681;49.738;9.004;2023-06-10T03:35:14;99235.50;;;12.73;81.08
75996;BME280;64681;49.738;9.004;2023-06-10T03:37:40;99246.63;;;12.91;80.49
75996;BME280;64681;49.738;9.004;2023-06-10T03:40:07;99237.47;;;12.92;80.11
75996;BME280;64681;49.738;9.004;2023-06-10T03:42:34;99240.50;;;12.90;80.25
75996;BME280;64681;49.738;9.004;2023-06-10T03:45:00;99247.00;;;12.89;80.59
75996;BME280;64681;49.738;9.004;2023-06-10T03:47:25;99254.16;;;13.01;80.00
75996;BME280;64681;49.738;9.004;2023-06-10T03:49:51;99253.72;;;12.99;80.29
75996;BME280;64681;49.738;9.004;2023-06-10T03:52:17;99250.25;;;12.98;79.99
75996;BME280;64681;49.738;9.004;2023-06-10T03:54:42;99252.94;;;12.98;80.34
75996;BME280;64681;49.738;9.004;2023-06-10T03:57:08;99263.13;;;13.09;79.94
75996;BME280;64681;49.738;9.004;2023-06-10T03:59:33;99261.19;;;13.25;79.68
75996;BME280;64681;49.738;9.004;2023-06-10T04:01:59;99255.91;;;13.29;79.20
75996;BME280;64681;49.738;9.004;2023-06-10T04:04:25;99267.22;;;13.22;79.37
75996;BME280;64681;49.738;9.004;2023-06-10T04:06:51;99260.75;;;13.39;78.77
75996;BME280;64681;49.738;9.004;2023-06-10T04:09:16;99261.31;;;13.49;78.66
75996;BME280;64681;49.738;9.004;2023-06-10T04:11:42;99258.28;;;13.50;78.50
75996;BME280;64681;49.738;9.004;2023-06-10T04:14:08;99262.47;;;13.67;77.89
75996;BME280;64681;49.738;9.004;2023-06-10T04:16:34;99270.03;;;13.81;77.76
75996;BME280;64681;49.738;9.004;2023-06-10T04:19:03;99263.88;;;13.81;77.05
75996;BME280;64681;49.738;9.004;2023-06-10T04:21:29;99259.22;;;13.77;77.21
75996;BME280;64681;49.738;9.004;2023-06-10T04:23:54;99266.53;;;13.81;77.30
75996;BME280;64681;49.738;9.004;2023-06-10T04:26:20;99278.16;;;13.85;77.47
75996;BME280;64681;49.738;9.004;2023-06-10T04:28:45;99281.16;;;13.83;77.56
75996;BME280;64681;49.738;9.004;2023-06-10T04:31:12;99272.31;;;14.02;77.28
75996;BME280;64681;49.738;9.004;2023-06-10T04:33:37;99266.69;;;14.31;76.69
75996;BME280;64681;49.738;9.004;2023-06-10T04:36:03;99275.91;;;14.53;75.44
75996;BME280;64681;49.738;9.004;2023-06-10T04:38:28;99271.81;;;14.82;75.22
75996;BME280;64681;49.738;9.004;2023-06-10T04:40:54;99277.78;;;15.22;73.91
75996;BME280;64681;49.738;9.004;2023-06-10T04:43:19;99262.72;;;15.48;73.12
75996;BME280;64681;49.738;9.004;2023-06-10T04:45:45;99251.91;;;15.75;72.59
75996;BME280;64681;49.738;9.004;2023-06-10T04:48:10;99264.19;;;16.06;72.01
75996;BME280;64681;49.738;9.004;2023-06-10T04:50:37;99263.06;;;16.07;70.28
75996;BME280;64681;49.738;9.004;2023-06-10T04:53:02;99248.56;;;16.19;69.60
75996;BME280;64681;49.738;9.004;2023-06-10T04:55:28;99262.00;;;16.57;68.97
75996;BME280;64681;49.738;9.004;2023-06-10T04:57:54;99251.34;;;16.75;68.62
75996;BME280;64681;49.738;9.004;2023-06-10T05:00:20;99248.44;;;16.98;67.99
75996;BME280;64681;49.738;9.004;2023-06-10T05:02:46;99256.75;;;17.34;67.45
75996;BME280;64681;49.738;9.004;2023-06-10T05:05:16;99254.06;;;17.34;65.78
75996;BME280;64681;49.738;9.004;2023-06-10T05:07:42;99246.06;;;17.60;65.56
75996;BME280;64681;49.738;9.004;2023-06-10T05:10:10;99261.59;;;17.88;64.84
75996;BME280;64681;49.738;9.004;2023-06-10T05:12:38;99264.41;;;18.39;62.01
75996;BME280;64681;49.738;9.004;2023-06-10T05:15:05;99266.72;;;18.51;61.84
75996;BME280;64681;49.738;9.004;2023-06-10T05:17:31;99273.31;;;18.68;61.25
75996;BME280;64681;49.738;9.004;2023-06-10T05:19:56;99264.06;;;18.69;61.56
75996;BME280;64681;49.738;9.004;2023-06-10T05:22:22;99269.44;;;19.09;61.54
75996;BME280;64681;49.738;9.004;2023-06-10T05:24:50;99268.59;;;19.41;61.00
75996;BME280;64681;49.738;9.004;2023-06-10T05:27:16;99275.41;;;19.78;60.36
75996;BME280;64681;49.738;9.004;2023-06-10T05:29:42;99267.16;;;20.03;59.34
75996;BME280;64681;49.738;9.004;2023-06-10T05:32:07;99269.00;;;20.21;57.98
75996;BME280;64681;49.738;9.004;2023-06-10T05:34:33;99275.03;;;20.43;57.63
75996;BME280;64681;49.738;9.004;2023-06-10T05:36:59;99277.63;;;20.58;56.58
75996;BME280;64681;49.738;9.004;2023-06-10T05:39:24;99273.28;;;21.16;55.57
75996;BME280;64681;49.738;9.004;2023-06-10T05:41:49;99279.66;;;21.72;53.39
75996;BME280;64681;49.738;9.004;2023-06-10T05:44:15;99279.41;;;21.90;53.87
75996;BME280;64681;49.738;9.004;2023-06-10T05:46:40;99280.06;;;22.28;52.19
75996;BME280;64681;49.738;9.004;2023-06-10T05:49:06;99278.31;;;22.14;52.56
75996;BME280;64681;49.738;9.004;2023-06-10T05:51:31;99283.47;;;22.84;50.32
75996;BME280;64681;49.738;9.004;2023-06-10T05:53:57;99263.72;;;23.23;50.02
75996;BME280;64681;49.738;9.004;2023-06-10T05:56:23;99268.69;;;23.85;47.62
75996;BME280;64681;49.738;9.004;2023-06-10T05:58:49;99269.22;;;24.17;47.26
75996;BME280;64681;49.738;9.004;2023-06-10T06:01:15;99266.22;;;24.77;46.47
75996;BME280;64681;49.738;9.004;2023-06-10T06:03:40;99264.56;;;25.26;44.58
75996;BME280;64681;49.738;9.004;2023-06-10T06:06:06;99271.59;;;25.95;43.34
75996;BME280;64681;49.738;9.004;2023-06-10T06:08:32;99277.53;;;26.67;41.30
75996;BME280;64681;49.738;9.004;2023-06-10T06:10:58;99253.41;;;27.10;40.75
75996;BME280;64681;49.738;9.004;2023-06-10T06:13:23;99266.03;;;28.15;39.00
75996;BME280;64681;49.738;9.004;2023-06-10T06:15:49;99266.63;;;28.97;36.95
75996;BME280;64681;49.738;9.004;2023-06-10T06:18:15;99265.84;;;29.86;35.76
75996;BME280;64681;49.738;9.004;2023-06-10T06:20:41;99267.22;;;31.57;33.53
75996;BME280;64681;49.738;9.004;2023-06-10T06:23:06;99262.97;;;33.36;30.76
75996;BME280;64681;49.738;9.004;2023-06-10T06:25:35;99270.75;;;34.51;29.72
75996;BME280;64681;49.738;9.004;2023-06-10T06:28:01;99269.16;;;36.01;26.48
75996;BME280;64681;49.738;9.004;2023-06-10T06:30:26;99279.84;;;36.98;25.55
75996;BME280;64681;49.738;9.004;2023-06-10T06:32:52;99271.56;;;37.89;24.04
75996;BME280;64681;49.738;9.004;2023-06-10T06:35:18;99268.94;;;38.60;23.64
75996;BME280;64681;49.738;9.004;2023-06-10T06:37:44;99259.31;;;38.61;24.19
75996;BME280;64681;49.738;9.004;2023-06-10T06:40:09;99278.91;;;39.45;22.23
75996;BME280;64681;49.738;9.004;2023-06-10T06:42:35;99270.88;;;40.09;21.73
75996;BME280;64681;49.738;9.004;2023-06-10T06:45:00;99278.78;;;40.72;20.59
75996;BME280;64681;49.738;9.004;2023-06-10T06:47:26;99274.88;;;40.75;20.66
75996;BME280;64681;49.738;9.004;2023-06-10T06:49:51;99276.25;;;40.47;20.58
75996;BME280;64681;49.738;9.004;2023-06-10T06:52:17;99278.91;;;40.66;20.92
75996;BME280;64681;49.738;9.004;2023-06-10T06:54:42;99271.47;;;40.69;20.55
75996;BME280;64681;49.738;9.004;2023-06-10T06:57:08;99265.53;;;40.24;20.66
75996;BME280;64681;49.738;9.004;2023-06-10T06:59:33;99275.66;;;40.96;20.08
75996;BME280;64681;49.738;9.004;2023-06-10T07:01:59;99258.28;;;41.11;19.78
75996;BME280;64681;49.738;9.004;2023-06-10T07:04:24;99264.72;;;41.99;19.31
75996;BME280;64681;49.738;9.004;2023-06-10T07:06:50;99262.84;;;42.38;18.74
75996;BME280;64681;49.738;9.004;2023-06-10T07:09:16;99262.72;;;42.59;18.69
75996;BME280;64681;49.738;9.004;2023-06-10T07:11:41;99269.78;;;43.59;18.92
75996;BME280;64681;49.738;9.004;2023-06-10T07:14:07;99264.09;;;44.46;17.15
75996;BME280;64681;49.738;9.004;2023-06-10T07:16:33;99268.50;;;44.98;17.00
75996;BME280;64681;49.738;9.004;2023-06-10T07:18:59;99268.66;;;45.25;16.52
75996;BME280;64681;49.738;9.004;2023-06-10T07:21:24;99267.25;;;45.77;17.57
75996;BME280;64681;49.738;9.004;2023-06-10T07:23:50;99263.31;;;46.25;17.02
75996;BME280;64681;49.738;9.004;2023-06-10T07:26:18;99258.56;;;46.27;15.61
75996;BME280;64681;49.738;9.004;2023-06-10T07:28:44;99270.25;;;45.53;16.20
75996;BME280;64681;49.738;9.004;2023-06-10T07:31:09;99259.13;;;45.63;16.03
75996;BME280;64681;49.738;9.004;2023-06-10T07:33:37;99269.88;;;46.82;15.02
75996;BME280;64681;49.738;9.004;2023-06-10T07:36:05;99264.22;;;46.82;14.75
75996;BME280;64681;49.738;9.004;2023-06-10T07:38:31;99259.78;;;46.07;16.02
75996;BME280;64681;49.738;9.004;2023-06-10T07:40:56;99259.88;;;46.26;15.55
75996;BME280;64681;49.738;9.004;2023-06-10T07:43:22;99260.69;;;45.74;16.07
75996;BME280;64681;49.738;9.004;2023-06-10T07:45:47;99254.75;;;44.69;16.30
75996;BME280;64681;49.738;9.004;2023-06-10T07:48:13;99257.91;;;43.84;16.59
75996;BME280;64681;49.738;9.004;2023-06-10T07:50:38;99269.22;;;44.32;16.72
75996;BME280;64681;49.738;9.004;2023-06-10T07:53:03;99256.28;;;43.42;16.67
75996;BME280;64681;49.738;9.004;2023-06-10T07:55:29;99259.97;;;41.57;18.09
75996;BME280;64681;49.738;9.004;2023-06-10T07:57:54;99267.19;;;42.47;17.55
75996;BME280;64681;49.738;9.004;2023-06-10T08:00:20;99254.72;;;42.27;17.79
75996;BME280;64681;49.738;9.004;2023-06-10T08:02:46;99266.44;;;42.02;17.92
75996;BME280;64681;49.738;9.004;2023-06-10T08:05:12;99259.78;;;39.17;20.23
75996;BME280;64681;49.738;9.004;2023-06-10T08:07:39;99265.34;;;38.46;21.15
75996;BME280;64681;49.738;9.004;2023-06-10T08:10:06;99272.78;;;39.14;20.38
75996;BME280;64681;49.738;9.004;2023-06-10T08:12:35;99264.19;;;40.39;19.19
75996;BME280;64681;49.738;9.004;2023-06-10T08:15:01;99265.72;;;40.40;19.32
75996;BME280;64681;49.738;9.004;2023-06-10T08:17:27;99270.06;;;39.41;20.28
75996;BME280;64681;49.738;9.004;2023-06-10T08:19:52;99262.38;;;38.76;22.16
75996;BME280;64681;49.738;9.004;2023-06-10T08:22:18;99257.09;;;37.30;22.89
75996;BME280;64681;49.738;9.004;2023-06-10T08:24:43;99255.22;;;38.43;21.96
75996;BME280;64681;49.738;9.004;2023-06-10T08:27:09;99259.69;;;40.09;20.52
75996;BME280;64681;49.738;9.004;2023-06-10T08:29:36;99263.22;;;38.71;22.01
75996;BME280;64681;49.738;9.004;2023-06-10T08:32:02;99252.34;;;39.52;21.00
75996;BME280;64681;49.738;9.004;2023-06-10T08:34:27;99265.72;;;39.26;20.68
75996;BME280;64681;49.738;9.004;2023-06-10T08:36:53;99259.50;;;39.01;21.03
75996;BME280;64681;49.738;9.004;2023-06-10T08:39:21;99266.50;;;37.27;23.30
75996;BME280;64681;49.738;9.004;2023-06-10T08:42:28;99258.16;;;36.90;22.59
75996;BME280;64681;49.738;9.004;2023-06-10T08:45:01;99260.44;;;36.86;23.00
75996;BME280;64681;49.738;9.004;2023-06-10T08:47:30;99255.66;;;37.23;23.05
75996;BME280;64681;49.738;9.004;2023-06-10T08:50:03;99257.47;;;37.76;22.71
75996;BME280;64681;49.738;9.004;2023-06-10T08:52:41;99255.81;;;37.31;23.29
75996;BME280;64681;49.738;9.004;2023-06-10T08:55:14;99259.03;;;37.71;23.22
75996;BME280;64681;49.738;9.004;2023-06-10T08:57:41;99255.41;;;38.31;22.50
75996;BME280;64681;49.738;9.004;2023-06-10T09:00:08;99251.22;;;38.95;21.10
75996;BME280;64681;49.738;9.004;2023-06-10T09:02:34;99256.28;;;37.04;23.71
75996;BME280;64681;49.738;9.004;2023-06-10T09:05:02;99243.22;;;38.86;22.53
75996;BME280;64681;49.738;9.004;2023-06-10T09:07:30;99245.94;;;38.92;22.70
75996;BME280;64681;49.738;9.004;2023-06-10T09:10:01;99244.88;;;40.00;20.13
75996;BME280;64681;49.738;9.004;2023-06-10T09:12:29;99237.50;;;39.44;20.88
75996;BME280;64681;49.738;9.004;2023-06-10T09:14:55;99246.94;;;39.27;20.51
75996;BME280;64681;49.738;9.004;2023-06-10T09:17:21;99229.47;;;39.67;22.23
75996;BME280;64681;49.738;9.004;2023-06-10T09:19:47;99229.28;;;40.05;19.91
75996;BME280;64681;49.738;9.004;2023-06-10T09:22:13;99226.31;;;39.30;20.98
75996;BME280;64681;49.738;9.004;2023-06-10T09:24:38;99237.94;;;38.25;22.27
75996;BME280;64681;49.738;9.004;2023-06-10T09:27:06;99223.75;;;38.04;22.14
75996;BME280;64681;49.738;9.004;2023-06-10T09:29:45;99232.44;;;38.77;21.55
75996;BME280;64681;49.738;9.004;2023-06-10T09:32:12;99225.81;;;38.80;21.46
75996;BME280;64681;49.738;9.004;2023-06-10T09:34:37;99231.44;;;38.74;20.78
75996;BME280;64681;49.738;9.004;2023-06-10T09:37:03;99228.34;;;38.21;21.79
75996;BME280;64681;49.738;9.004;2023-06-10T09:39:29;99220.06;;;36.09;23.93
75996;BME280;64681;49.738;9.004;2023-06-10T09:41:54;99217.25;;;34.45;25.51
75996;BME280;64681;49.738;9.004;2023-06-10T09:44:21;99215.53;;;34.53;25.90
75996;BME280;64681;49.738;9.004;2023-06-10T09:46:49;99216.75;;;33.86;26.74
75996;BME280;64681;49.738;9.004;2023-06-10T09:49:18;99226.91;;;32.57;28.01
75996;BME280;64681;49.738;9.004;2023-06-10T09:51:54;99218.34;;;30.73;30.22
75996;BME280;64681;49.738;9.004;2023-06-10T09:54:21;99224.00;;;29.11;33.06
75996;BME280;64681;49.738;9.004;2023-06-10T09:56:52;99203.84;;;29.66;33.02
75996;BME280;64681;49.738;9.004;2023-06-10T09:59:29;99213.78;;;29.64;32.90
75996;BME280;64681;49.738;9.004;2023-06-10T10:01:59;99208.53;;;29.32;32.69
75996;BME280;64681;49.738;9.004;2023-06-10T10:04:26;99206.56;;;29.14;34.17
75996;BME280;64681;49.738;9.004;2023-06-10T10:06:52;99203.34;;;29.16;33.98
75996;BME280;64681;49.738;9.004;2023-06-10T10:09:17;99206.78;;;29.53;33.78
75996;BME280;64681;49.738;9.004;2023-06-10T10:11:43;99212.31;;;29.44;33.53
75996;BME280;64681;49.738;9.004;2023-06-10T10:14:10;99199.28;;;28.83;33.54
75996;BME280;64681;49.738;9.004;2023-06-10T10:16:39;99209.22;;;28.99;33.28
75996;BME280;64681;49.738;9.004;2023-06-10T10:19:20;99200.91;;;29.36;33.54
75996;BME280;64681;49.738;9.004;2023-06-10T10:22:06;99182.00;;;29.11;33.00
75996;BME280;64681;49.738;9.004;2023-06-10T10:24:42;99178.91;;;29.27;33.62
75996;BME280;64681;49.738;9.004;2023-06-10T10:27:18;99194.09;;;29.56;34.37
75996;BME280;64681;49.738;9.004;2023-06-10T10:29:47;99197.84;;;29.77;33.67
75996;BME280;64681;49.738;9.004;2023-06-10T10:32:14;99186.81;;;29.77;33.08
75996;BME280;64681;49.738;9.004;2023-06-10T10:34:53;99195.97;;;29.50;33.11
75996;BME280;64681;49.738;9.004;2023-06-10T10:37:22;99183.69;;;29.60;34.09
75996;BME280;64681;49.738;9.004;2023-06-10T10:39:49;99183.72;;;29.51;32.88
75996;BME280;64681;49.738;9.004;2023-06-10T10:42:17;99182.75;;;29.97;32.73
75996;BME280;64681;49.738;9.004;2023-06-10T10:44:44;99176.16;;;29.27;33.77
75996;BME280;64681;49.738;9.004;2023-06-10T10:47:10;99183.84;;;29.99;32.90
75996;BME280;64681;49.738;9.004;2023-06-10T10:50:03;99184.09;;;30.02;33.26
75996;BME280;64681;49.738;9.004;2023-06-10T10:53:01;99185.56;;;30.12;32.65
75996;BME280;64681;49.738;9.004;2023-06-10T10:55:28;99177.41;;;29.93;32.79
75996;BME280;64681;49.738;9.004;2023-06-10T10:58:08;99180.06;;;29.54;33.95
75996;BME280;64681;49.738;9.004;2023-06-10T11:00:49;99170.44;;;28.79;34.84
75996;BME280;64681;49.738;9.004;2023-06-10T11:03:16;99152.59;;;28.65;34.76
75996;BME280;64681;49.738;9.004;2023-06-10T11:05:44;99166.75;;;28.07;35.32
75996;BME280;64681;49.738;9.004;2023-06-10T11:11:24;99130.63;;;29.17;33.05
75996;BME280;64681;49.738;9.004;2023-06-10T11:14:06;99174.63;;;29.26;34.09
75996;BME280;64681;49.738;9.004;2023-06-10T11:17:01;99166.75;;;29.52;34.13
75996;BME280;64681;49.738;9.004;2023-06-10T11:20:20;99156.94;;;29.61;32.65
75996;BME280;64681;49.738;9.004;2023-06-10T11:23:03;99171.00;;;29.63;31.95
75996;BME280;64681;49.738;9.004;2023-06-10T11:25:40;99165.13;;;29.46;33.49
75996;BME280;64681;49.738;9.004;2023-06-10T11:28:21;99165.81;;;29.89;31.89
75996;BME280;64681;49.738;9.004;2023-06-10T11:30:46;99150.00;;;29.99;31.93
75996;BME280;64681;49.738;9.004;2023-06-10T11:33:44;99167.97;;;29.51;32.64
75996;BME280;64681;49.738;9.004;2023-06-10T11:36:14;99166.75;;;29.52;32.96
75996;BME280;64681;49.738;9.004;2023-06-10T11:38:44;99123.75;;;29.64;32.88
75996;BME280;64681;49.738;9.004;2023-06-10T11:41:19;99148.97;;;29.63;33.06
75996;BME280;64681;49.738;9.004;2023-06-10T11:44:18;99168.19;;;30.06;31.19
75996;BME280;64681;49.738;9.004;2023-06-10T11:46:44;99130.00;;;29.31;31.86
75996;BME280;64681;49.738;9.004;2023-06-10T11:49:11;99134.28;;;29.32;31.86
75996;BME280;64681;49.738;9.004;2023-06-10T11:51:41;99159.66;;;29.70;31.68
75996;BME280;64681;49.738;9.004;2023-06-10T11:54:16;99145.28;;;29.99;31.41
75996;BME280;64681;49.738;9.004;2023-06-10T11:56:43;99117.84;;;29.81;31.38
75996;BME280;64681;49.738;9.004;2023-06-10T11:59:30;99141.66;;;30.32;31.12
75996;BME280;64681;49.738;9.004;2023-06-10T12:01:57;99130.41;;;29.73;31.16
75996;BME280;64681;49.738;9.004;2023-06-10T12:04:26;99149.72;;;29.20;31.94
75996;BME280;64681;49.738;9.004;2023-06-10T12:06:56;99141.44;;;28.68;33.03
75996;BME280;64681;49.738;9.004;2023-06-10T12:09:29;99142.41;;;29.17;31.76
75996;BME280;64681;49.738;9.004;2023-06-10T12:12:03;99143.09;;;28.94;33.41
75996;BME280;64681;49.738;9.004;2023-06-10T12:14:55;99155.19;;;29.73;32.03
75996;BME280;64681;49.738;9.004;2023-06-10T12:19:56;99154.41;;;28.77;31.61
75996;BME280;64681;49.738;9.004;2023-06-10T12:22:21;99140.38;;;28.38;32.39
75996;BME280;64681;49.738;9.004;2023-06-10T12:24:59;99134.38;;;28.95;31.76
75996;BME280;64681;49.738;9.004;2023-06-10T12:27:25;99143.88;;;29.37;31.30
75996;BME280;64681;49.738;9.004;2023-06-10T12:29:53;99130.44;;;29.30;30.15
75996;BME280;64681;49.738;9.004;2023-06-10T12:32:19;99137.03;;;29.32;30.73
75996;BME280;64681;49.738;9.004;2023-06-10T12:34:48;99147.75;;;29.21;32.40
75996;BME280;64681;49.738;9.004;2023-06-10T12:37:14;99145.13;;;29.27;32.12
75996;BME280;64681;49.738;9.004;2023-06-10T12:39:41;99138.63;;;29.58;31.58
75996;BME280;64681;49.738;9.004;2023-06-10T12:42:08;99139.03;;;29.32;31.65
75996;BME280;64681;49.738;9.004;2023-06-10T12:44:39;99148.59;;;28.94;31.88
75996;BME280;64681;49.738;9.004;2023-06-10T12:47:11;99121.63;;;29.16;31.11
75996;BME280;64681;49.738;9.004;2023-06-10T12:49:40;99130.22;;;29.09;31.74
75996;BME280;64681;49.738;9.004;2023-06-10T12:52:06;99140.81;;;28.92;32.52
75996;BME280;64681;49.738;9.004;2023-06-10T12:54:32;99128.97;;;29.19;31.72
75996;BME280;64681;49.738;9.004;2023-06-10T12:56:58;99126.13;;;29.47;31.90
75996;BME280;64681;49.738;9.004;2023-06-10T12:59:23;99131.59;;;29.57;30.83
75996;BME280;64681;49.738;9.004;2023-06-10T13:01:51;99129.78;;;29.01;31.18
75996;BME280;64681;49.738;9.004;2023-06-10T13:04:17;99120.94;;;28.97;32.66
75996;BME280;64681;49.738;9.004;2023-06-10T13:06:43;99117.09;;;29.47;31.19
75996;BME280;64681;49.738;9.004;2023-06-10T13:09:09;99128.97;;;29.19;32.04
75996;BME280;64681;49.738;9.004;2023-06-10T13:11:36;99119.34;;;29.58;32.10
75996;BME280;64681;49.738;9.004;2023-06-10T13:14:03;99120.69;;;29.96;31.08